sensor_id;sensor_type;location;lat;lon;timestamp;temperature;humidity
21622;DHT22;10973;46.706;12.340;2023-04-25T00:00:58;2.00;99.90
21622;DHT22;10973;46.706;12.340;2023-04-25T00:03:26;2.10;99.90
21622;DHT22;10973;46.706;12.340;2023-04-25T00:05:53;2.10;99.90
21622;DHT22;10973;46.706;12.340;2023-04-25T00:08:21;2.00;99.90
21622;DHT22;10973;46.706;12.340;2023-04-25T00:10:49;1.90;99.90
21622;DHT22;10973;46.706;12.340;2023-04-25T00:13:16;2.00;99.90
21622;DHT22;10973;46.706;12.340;2023-04-25T00:15:44;2.00;99.90
21622;DHT22;10973;46.706;12.340;2023-04-25T00:18:11;2.00;99.90
21622;DHT22;10973;46.706;12.340;2023-04-25T00:20:38;1.90;99.90
21622;DHT22;10973;46.706;12.340;2023-04-25T00:23:06;1.90;99.90
21622;DHT22;10973;46.706;12.340;2023-04-25T00:25:33;1.80;99.90
21622;DHT22;10973;46.706;12.340;2023-04-25T00:28:00;1.90;99.90
21622;DHT22;10973;46.706;12.340;2023-04-25T00:30:28;1.80;99.90
21622;DHT22;10973;46.706;12.340;2023-04-25T00:32:55;1.90;99.90
21622;DHT22;10973;46.706;12.340;2023-04-25T00:35:23;1.90;99.90
21622;DHT22;10973;46.706;12.340;2023-04-25T00:37:50;1.90;99.90
21622;DHT22;10973;46.706;12.340;2023-04-25T00:40:17;1.90;99.90
21622;DHT22;10973;46.706;12.340;2023-04-25T00:42:47;1.70;99.90
21622;DHT22;10973;46.706;12.340;2023-04-25T00:45:15;1.80;99.90
21622;DHT22;10973;46.706;12.340;2023-04-25T00:47:42;1.80;99.90
21622;DHT22;10973;46.706;12.340;2023-04-25T00:50:11;1.80;99.90
21622;DHT22;10973;46.706;12.340;2023-04-25T00:52:43;1.70;99.90
21622;DHT22;10973;46.706;12.340;2023-04-25T00:55:12;1.60;99.90
21622;DHT22;10973;46.706;12.340;2023-04-25T00:57:41;1.70;99.90
21622;DHT22;10973;46.706;12.340;2023-04-25T01:00:11;1.70;99.90
21622;DHT22;10973;46.706;12.340;2023-04-25T01:02:40;1.60;99.90
21622;DHT22;10973;46.706;12.340;2023-04-25T01:05:08;1.60;99.90
21622;DHT22;10973;46.706;12.340;2023-04-25T01:07:36;1.60;99.90
21622;DHT22;10973;46.706;12.340;2023-04-25T01:10:05;1.50;99.90
21622;DHT22;10973;46.706;12.340;2023-04-25T01:12:33;1.50;99.90
21622;DHT22;10973;46.706;12.340;2023-04-25T01:15:01;1.50;99.90
21622;DHT22;10973;46.706;12.340;2023-04-25T01:17:28;1.50;99.90
21622;DHT22;10973;46.706;12.340;2023-04-25T01:19:56;1.60;99.90
21622;DHT22;10973;46.706;12.340;2023-04-25T01:22:25;1.50;99.90
21622;DHT22;10973;46.706;12.340;2023-04-25T01:24:53;1.50;99.90
21622;DHT22;10973;46.706;12.340;2023-04-25T01:27:21;1.60;99.90
21622;DHT22;10973;46.706;12.340;2023-04-25T01:29:50;1.50;99.90
21622;DHT22;10973;46.706;12.340;2023-04-25T01:32:18;1.40;99.90
21622;DHT22;10973;46.706;12.340;2023-04-25T01:34:46;1.40;99.90
21622;DHT22;10973;46.706;12.340;2023-04-25T01:37:13;1.50;99.90
21622;DHT22;10973;46.706;12.340;2023-04-25T01:39:41;1.40;99.90
21622;DHT22;10973;46.706;12.340;2023-04-25T01:42:08;1.50;99.90
21622;DHT22;10973;46.706;12.340;2023-04-25T01:44:36;1.50;99.90
21622;DHT22;10973;46.706;12.340;2023-04-25T01:47:03;1.40;99.90
21622;DHT22;10973;46.706;12.340;2023-04-25T01:49:31;1.50;99.90
21622;DHT22;10973;46.706;12.340;2023-04-25T01:51:58;1.40;99.90
21622;DHT22;10973;46.706;12.340;2023-04-25T01:54:26;1.50;99.90
21622;DHT22;10973;46.706;12.340;2023-04-25T01:56:55;1.40;99.90
21622;DHT22;10973;46.706;12.340;2023-04-25T01:59:24;1.40;99.90
21622;DHT22;10973;46.706;12.340;2023-04-25T02:01:51;1.30;99.90
21622;DHT22;10973;46.706;12.340;2023-04-25T02:04:19;1.40;99.90
21622;DHT22;10973;46.706;12.340;2023-04-25T02:06:47;1.50;99.90
21622;DHT22;10973;46.706;12.340;2023-04-25T02:09:16;1.60;99.90
21622;DHT22;10973;46.706;12.340;2023-04-25T02:11:47;1.40;99.90
21622;DHT22;10973;46.706;12.340;2023-04-25T02:14:17;1.40;99.90
21622;DHT22;10973;46.706;12.340;2023-04-25T02:16:44;1.30;99.90
21622;DHT22;10973;46.706;12.340;2023-04-25T02:19:12;1.30;99.90
21622;DHT22;10973;46.706;12.340;2023-04-25T02:21:39;1.40;99.90
21622;DHT22;10973;46.706;12.340;2023-04-25T02:24:07;1.40;99.90
21622;DHT22;10973;46.706;12.340;2023-04-25T02:26:35;1.40;99.90
21622;DHT22;10973;46.706;12.340;2023-04-25T02:29:02;1.40;99.90
21622;DHT22;10973;46.706;12.340;2023-04-25T02:31:29;1.20;99.90
21622;DHT22;10973;46.706;12.340;2023-04-25T02:33:57;1.10;99.90
21622;DHT22;10973;46.706;12.340;2023-04-25T02:36:24;1.10;99.90
21622;DHT22;10973;46.706;12.340;2023-04-25T02:38:51;1.10;99.90
21622;DHT22;10973;46.706;12.340;2023-04-25T02:41:19;1.10;99.90
21622;DHT22;10973;46.706;12.340;2023-04-25T02:43:46;1.00;99.90
21622;DHT22;10973;46.706;12.340;2023-04-25T02:46:14;1.00;99.90
21622;DHT22;10973;46.706;12.340;2023-04-25T02:48:51;1.10;99.90
21622;DHT22;10973;46.706;12.340;2023-04-25T02:51:18;1.00;99.90
21622;DHT22;10973;46.706;12.340;2023-04-25T02:53:46;0.90;99.90
21622;DHT22;10973;46.706;12.340;2023-04-25T02:56:14;1.00;99.90
21622;DHT22;10973;46.706;12.340;2023-04-25T02:58:42;0.90;99.90
21622;DHT22;10973;46.706;12.340;2023-04-25T03:01:09;1.00;99.90
21622;DHT22;10973;46.706;12.340;2023-04-25T03:03:36;0.90;99.90
21622;DHT22;10973;46.706;12.340;2023-04-25T03:06:04;0.90;99.90
21622;DHT22;10973;46.706;12.340;2023-04-25T03:08:31;0.90;99.90
21622;DHT22;10973;46.706;12.340;2023-04-25T03:10:58;0.90;99.90
21622;DHT22;10973;46.706;12.340;2023-04-25T03:13:26;0.90;99.90
21622;DHT22;10973;46.706;12.340;2023-04-25T03:15:53;0.90;99.90
21622;DHT22;10973;46.706;12.340;2023-04-25T03:18:21;0.90;99.90
21622;DHT22;10973;46.706;12.340;2023-04-25T03:20:48;0.90;99.90
21622;DHT22;10973;46.706;12.340;2023-04-25T03:23:15;0.90;99.90
21622;DHT22;10973;46.706;12.340;2023-04-25T03:25:42;0.90;99.90
21622;DHT22;10973;46.706;12.340;2023-04-25T03:28:10;1.00;99.90
21622;DHT22;10973;46.706;12.340;2023-04-25T03:30:39;0.90;99.90
21622;DHT22;10973;46.706;12.340;2023-04-25T03:33:06;1.00;99.90
21622;DHT22;10973;46.706;12.340;2023-04-25T03:35:35;1.00;99.90
21622;DHT22;10973;46.706;12.340;2023-04-25T03:38:02;1.00;99.90
21622;DHT22;10973;46.706;12.340;2023-04-25T03:40:30;1.00;99.90
21622;DHT22;10973;46.706;12.340;2023-04-25T03:42:57;1.00;99.90
21622;DHT22;10973;46.706;12.340;2023-04-25T03:45:24;0.90;99.90
21622;DHT22;10973;46.706;12.340;2023-04-25T03:47:51;0.80;99.90
21622;DHT22;10973;46.706;12.340;2023-04-25T03:50:19;0.90;99.90
21622;DHT22;10973;46.706;12.340;2023-04-25T03:52:46;0.70;99.90
21622;DHT22;10973;46.706;12.340;2023-04-25T03:55:14;0.80;99.90
21622;DHT22;10973;46.706;12.340;2023-04-25T03:57:41;0.80;99.90
21622;DHT22;10973;46.706;12.340;2023-04-25T04:00:09;0.70;99.90
21622;DHT22;10973;46.706;12.340;2023-04-25T04:02:37;0.70;99.90
21622;DHT22;10973;46.706;12.340;2023-04-25T04:07:33;0.50;99.90
21622;DHT22;10973;46.706;12.340;2023-04-25T04:10:00;0.50;99.90
21622;DHT22;10973;46.706;12.340;2023-04-25T04:12:27;0.40;99.90
21622;DHT22;10973;46.706;12.340;2023-04-25T04:14:55;0.50;99.90
21622;DHT22;10973;46.706;12.340;2023-04-25T04:17:22;0.50;99.90
21622;DHT22;10973;46.706;12.340;2023-04-25T04:19:50;0.60;99.90
21622;DHT22;10973;46.706;12.340;2023-04-25T04:22:17;0.60;99.90
21622;DHT22;10973;46.706;12.340;2023-04-25T04:24:44;0.50;99.90
21622;DHT22;10973;46.706;12.340;2023-04-25T04:27:12;0.40;99.90
21622;DHT22;10973;46.706;12.340;2023-04-25T04:29:39;0.30;99.90
21622;DHT22;10973;46.706;12.340;2023-04-25T04:32:07;0.40;99.90
21622;DHT22;10973;46.706;12.340;2023-04-25T04:34:42;0.40;99.90
21622;DHT22;10973;46.706;12.340;2023-04-25T04:37:09;0.40;99.90
21622;DHT22;10973;46.706;12.340;2023-04-25T04:39:37;0.40;99.90
21622;DHT22;10973;46.706;12.340;2023-04-25T04:42:04;0.50;99.90
21622;DHT22;10973;46.706;12.340;2023-04-25T04:44:32;0.50;99.90
21622;DHT22;10973;46.706;12.340;2023-04-25T04:47:00;0.50;99.90
21622;DHT22;10973;46.706;12.340;2023-04-25T04:49:28;0.50;99.90
21622;DHT22;10973;46.706;12.340;2023-04-25T04:51:55;0.40;99.90
21622;DHT22;10973;46.706;12.340;2023-04-25T04:54:25;0.40;99.90
21622;DHT22;10973;46.706;12.340;2023-04-25T04:56:53;0.50;99.90
21622;DHT22;10973;46.706;12.340;2023-04-25T04:59:20;0.50;99.90
21622;DHT22;10973;46.706;12.340;2023-04-25T05:01:47;0.50;99.90
21622;DHT22;10973;46.706;12.340;2023-04-25T05:04:14;0.50;99.90
21622;DHT22;10973;46.706;12.340;2023-04-25T05:06:42;0.50;99.90
21622;DHT22;10973;46.706;12.340;2023-04-25T05:09:09;0.50;99.90
21622;DHT22;10973;46.706;12.340;2023-04-25T05:11:37;0.50;99.90
21622;DHT22;10973;46.706;12.340;2023-04-25T05:14:04;0.40;99.90
21622;DHT22;10973;46.706;12.340;2023-04-25T05:16:32;0.40;99.90
21622;DHT22;10973;46.706;12.340;2023-04-25T05:18:59;0.30;99.90
21622;DHT22;10973;46.706;12.340;2023-04-25T05:21:27;0.40;99.90
21622;DHT22;10973;46.706;12.340;2023-04-25T05:23:54;0.40;99.90
21622;DHT22;10973;46.706;12.340;2023-04-25T05:26:22;0.50;99.90
21622;DHT22;10973;46.706;12.340;2023-04-25T05:28:49;0.40;99.90
21622;DHT22;10973;46.706;12.340;2023-04-25T05:31:17;0.40;99.90
21622;DHT22;10973;46.706;12.340;2023-04-25T05:33:45;0.40;99.90
21622;DHT22;10973;46.706;12.340;2023-04-25T05:36:12;0.60;99.90
21622;DHT22;10973;46.706;12.340;2023-04-25T05:38:41;0.70;99.90
21622;DHT22;10973;46.706;12.340;2023-04-25T05:41:09;0.70;99.90
21622;DHT22;10973;46.706;12.340;2023-04-25T05:43:37;0.60;99.90
21622;DHT22;10973;46.706;12.340;2023-04-25T05:46:04;0.70;99.90
21622;DHT22;10973;46.706;12.340;2023-04-25T05:48:32;0.80;99.90
21622;DHT22;10973;46.706;12.340;2023-04-25T05:50:59;1.00;99.90
21622;DHT22;10973;46.706;12.340;2023-04-25T05:53:27;1.00;99.90
21622;DHT22;10973;46.706;12.340;2023-04-25T05:55:54;1.10;99.90
21622;DHT22;10973;46.706;12.340;2023-04-25T05:58:21;1.30;99.90
21622;DHT22;10973;46.706;12.340;2023-04-25T06:00:49;1.40;99.90
21622;DHT22;10973;46.706;12.340;2023-04-25T06:03:17;1.50;99.90
21622;DHT22;10973;46.706;12.340;2023-04-25T06:05:47;1.60;99.90
21622;DHT22;10973;46.706;12.340;2023-04-25T06:08:14;1.70;99.90
21622;DHT22;10973;46.706;12.340;2023-04-25T06:10:42;1.80;99.90
21622;DHT22;10973;46.706;12.340;2023-04-25T06:13:09;1.90;99.90
21622;DHT22;10973;46.706;12.340;2023-04-25T06:15:37;2.00;99.90
21622;DHT22;10973;46.706;12.340;2023-04-25T06:18:04;2.10;99.90
21622;DHT22;10973;46.706;12.340;2023-04-25T06:20:32;2.10;99.90
21622;DHT22;10973;46.706;12.340;2023-04-25T06:23:03;2.20;99.90
21622;DHT22;10973;46.706;12.340;2023-04-25T06:25:31;2.30;99.90
21622;DHT22;10973;46.706;12.340;2023-04-25T06:27:59;2.40;99.90
21622;DHT22;10973;46.706;12.340;2023-04-25T06:30:28;2.40;99.90
21622;DHT22;10973;46.706;12.340;2023-04-25T06:32:55;2.50;99.90
21622;DHT22;10973;46.706;12.340;2023-04-25T06:35:24;2.60;99.90
21622;DHT22;10973;46.706;12.340;2023-04-25T06:37:51;2.60;99.90
21622;DHT22;10973;46.706;12.340;2023-04-25T06:40:18;2.80;99.90
21622;DHT22;10973;46.706;12.340;2023-04-25T06:42:46;2.90;99.90
21622;DHT22;10973;46.706;12.340;2023-04-25T06:45:13;3.00;99.90
21622;DHT22;10973;46.706;12.340;2023-04-25T06:47:40;3.10;99.90
21622;DHT22;10973;46.706;12.340;2023-04-25T06:50:08;3.20;99.90
21622;DHT22;10973;46.706;12.340;2023-04-25T06:52:36;3.30;99.90
21622;DHT22;10973;46.706;12.340;2023-04-25T06:55:06;3.40;99.90
21622;DHT22;10973;46.706;12.340;2023-04-25T06:57:33;3.40;99.90
21622;DHT22;10973;46.706;12.340;2023-04-25T07:00:01;3.40;99.90
21622;DHT22;10973;46.706;12.340;2023-04-25T07:02:28;3.40;99.90
21622;DHT22;10973;46.706;12.340;2023-04-25T07:04:56;3.40;99.90
21622;DHT22;10973;46.706;12.340;2023-04-25T07:07:23;3.50;99.90
21622;DHT22;10973;46.706;12.340;2023-04-25T07:09:50;3.50;99.90
21622;DHT22;10973;46.706;12.340;2023-04-25T07:12:18;3.50;99.90
21622;DHT22;10973;46.706;12.340;2023-04-25T07:14:45;3.50;99.90
21622;DHT22;10973;46.706;12.340;2023-04-25T07:17:12;3.60;99.90
21622;DHT22;10973;46.706;12.340;2023-04-25T07:19:41;3.70;99.90
21622;DHT22;10973;46.706;12.340;2023-04-25T07:22:08;3.80;99.90
21622;DHT22;10973;46.706;12.340;2023-04-25T07:24:35;3.90;99.90
21622;DHT22;10973;46.706;12.340;2023-04-25T07:27:02;3.90;99.90
21622;DHT22;10973;46.706;12.340;2023-04-25T07:29:30;4.00;99.90
21622;DHT22;10973;46.706;12.340;2023-04-25T07:31:57;4.10;99.90
21622;DHT22;10973;46.706;12.340;2023-04-25T07:34:25;4.20;99.90
21622;DHT22;10973;46.706;12.340;2023-04-25T07:39:20;4.40;99.90
21622;DHT22;10973;46.706;12.340;2023-04-25T07:41:47;4.40;99.90
21622;DHT22;10973;46.706;12.340;2023-04-25T07:44:15;4.50;99.90
21622;DHT22;10973;46.706;12.340;2023-04-25T07:46:42;4.60;99.90
21622;DHT22;10973;46.706;12.340;2023-04-25T07:49:09;4.60;99.90
21622;DHT22;10973;46.706;12.340;2023-04-25T07:51:37;4.70;99.90
21622;DHT22;10973;46.706;12.340;2023-04-25T07:54:04;4.80;99.90
21622;DHT22;10973;46.706;12.340;2023-04-25T07:56:31;4.80;99.90
21622;DHT22;10973;46.706;12.340;2023-04-25T07:59:17;4.90;99.90
21622;DHT22;10973;46.706;12.340;2023-04-25T08:01:45;5.00;99.90
21622;DHT22;10973;46.706;12.340;2023-04-25T08:04:12;5.00;99.90
21622;DHT22;10973;46.706;12.340;2023-04-25T08:06:40;5.10;99.90
21622;DHT22;10973;46.706;12.340;2023-04-25T08:09:07;5.10;99.90
21622;DHT22;10973;46.706;12.340;2023-04-25T08:11:35;5.10;99.90
21622;DHT22;10973;46.706;12.340;2023-04-25T08:14:03;5.20;99.90
21622;DHT22;10973;46.706;12.340;2023-04-25T08:16:30;5.20;99.90
21622;DHT22;10973;46.706;12.340;2023-04-25T08:18:59;5.30;99.90
21622;DHT22;10973;46.706;12.340;2023-04-25T08:21:27;5.40;99.90
21622;DHT22;10973;46.706;12.340;2023-04-25T08:23:54;5.40;99.90
21622;DHT22;10973;46.706;12.340;2023-04-25T08:26:22;5.50;99.90
21622;DHT22;10973;46.706;12.340;2023-04-25T08:28:49;5.60;99.90
21622;DHT22;10973;46.706;12.340;2023-04-25T08:31:17;5.60;99.90
21622;DHT22;10973;46.706;12.340;2023-04-25T08:33:45;5.80;99.90
21622;DHT22;10973;46.706;12.340;2023-04-25T08:36:12;5.80;99.90
21622;DHT22;10973;46.706;12.340;2023-04-25T08:38:47;5.90;99.90
21622;DHT22;10973;46.706;12.340;2023-04-25T08:41:15;6.00;99.90
21622;DHT22;10973;46.706;12.340;2023-04-25T08:43:44;6.00;99.90
21622;DHT22;10973;46.706;12.340;2023-04-25T08:46:12;6.10;99.90
21622;DHT22;10973;46.706;12.340;2023-04-25T08:48:45;6.20;99.90
21622;DHT22;10973;46.706;12.340;2023-04-25T08:51:21;6.20;99.90
21622;DHT22;10973;46.706;12.340;2023-04-25T08:53:51;6.30;99.90
21622;DHT22;10973;46.706;12.340;2023-04-25T08:56:24;6.40;99.90
21622;DHT22;10973;46.706;12.340;2023-04-25T08:58:54;6.50;99.90
21622;DHT22;10973;46.706;12.340;2023-04-25T09:01:22;6.70;99.90
21622;DHT22;10973;46.706;12.340;2023-04-25T09:03:50;6.80;99.90
21622;DHT22;10973;46.706;12.340;2023-04-25T09:06:19;7.00;99.90
21622;DHT22;10973;46.706;12.340;2023-04-25T09:08:49;7.00;99.90
21622;DHT22;10973;46.706;12.340;2023-04-25T09:11:17;7.00;99.90
21622;DHT22;10973;46.706;12.340;2023-04-25T09:13:49;7.00;99.90
21622;DHT22;10973;46.706;12.340;2023-04-25T09:16:16;7.00;99.90
21622;DHT22;10973;46.706;12.340;2023-04-25T09:18:44;7.10;99.90
21622;DHT22;10973;46.706;12.340;2023-04-25T09:21:14;7.10;99.70
21622;DHT22;10973;46.706;12.340;2023-04-25T09:26:16;7.10;99.30
21622;DHT22;10973;46.706;12.340;2023-04-25T09:28:45;7.00;99.30
21622;DHT22;10973;46.706;12.340;2023-04-25T09:31:21;7.10;99.70
21622;DHT22;10973;46.706;12.340;2023-04-25T09:33:49;7.10;99.60
21622;DHT22;10973;46.706;12.340;2023-04-25T09:36:20;7.10;98.80
21622;DHT22;10973;46.706;12.340;2023-04-25T09:38:54;7.10;99.90
21622;DHT22;10973;46.706;12.340;2023-04-25T09:41:24;7.20;99.90
21622;DHT22;10973;46.706;12.340;2023-04-25T09:43:57;7.30;99.90
21622;DHT22;10973;46.706;12.340;2023-04-25T09:46:32;7.30;99.90
21622;DHT22;10973;46.706;12.340;2023-04-25T09:49:07;7.30;99.90
21622;DHT22;10973;46.706;12.340;2023-04-25T09:51:34;7.40;99.90
21622;DHT22;10973;46.706;12.340;2023-04-25T09:54:03;7.40;99.80
21622;DHT22;10973;46.706;12.340;2023-04-25T09:56:36;7.40;97.80
21622;DHT22;10973;46.706;12.340;2023-04-25T09:59:04;7.40;98.50
21622;DHT22;10973;46.706;12.340;2023-04-25T10:01:33;7.40;98.30
21622;DHT22;10973;46.706;12.340;2023-04-25T10:04:03;7.40;98.20
21622;DHT22;10973;46.706;12.340;2023-04-25T10:06:36;7.40;98.70
21622;DHT22;10973;46.706;12.340;2023-04-25T10:09:05;7.40;98.30
21622;DHT22;10973;46.706;12.340;2023-04-25T10:11:35;7.40;99.50
21622;DHT22;10973;46.706;12.340;2023-04-25T10:14:03;7.50;98.60
21622;DHT22;10973;46.706;12.340;2023-04-25T10:16:32;7.60;97.70
21622;DHT22;10973;46.706;12.340;2023-04-25T10:19:00;7.50;96.30
21622;DHT22;10973;46.706;12.340;2023-04-25T10:21:31;7.60;96.30
21622;DHT22;10973;46.706;12.340;2023-04-25T10:24:00;7.70;97.30
21622;DHT22;10973;46.706;12.340;2023-04-25T10:26:29;7.70;96.10
21622;DHT22;10973;46.706;12.340;2023-04-25T10:29:00;7.90;96.90
21622;DHT22;10973;46.706;12.340;2023-04-25T10:31:31;8.00;96.00
21622;DHT22;10973;46.706;12.340;2023-04-25T10:34:00;8.00;95.60
21622;DHT22;10973;46.706;12.340;2023-04-25T10:36:31;8.10;95.90
21622;DHT22;10973;46.706;12.340;2023-04-25T10:39:06;8.20;94.90
21622;DHT22;10973;46.706;12.340;2023-04-25T10:41:57;8.40;96.50
21622;DHT22;10973;46.706;12.340;2023-04-25T10:44:27;8.40;95.90
21622;DHT22;10973;46.706;12.340;2023-04-25T10:46:59;8.30;95.70
21622;DHT22;10973;46.706;12.340;2023-04-25T10:52:24;8.10;95.80
21622;DHT22;10973;46.706;12.340;2023-04-25T10:54:54;8.00;95.80
21622;DHT22;10973;46.706;12.340;2023-04-25T11:00:18;7.60;98.00
21622;DHT22;10973;46.706;12.340;2023-04-25T11:02:59;7.50;99.30
21622;DHT22;10973;46.706;12.340;2023-04-25T11:05:33;7.50;99.80
21622;DHT22;10973;46.706;12.340;2023-04-25T11:08:29;7.70;99.70
21622;DHT22;10973;46.706;12.340;2023-04-25T11:11:09;8.00;99.90
21622;DHT22;10973;46.706;12.340;2023-04-25T11:13:37;8.60;98.90
21622;DHT22;10973;46.706;12.340;2023-04-25T11:16:07;9.60;99.90
21622;DHT22;10973;46.706;12.340;2023-04-25T11:18:44;10.50;99.30
21622;DHT22;10973;46.706;12.340;2023-04-25T11:21:12;11.20;97.80
21622;DHT22;10973;46.706;12.340;2023-04-25T11:23:40;11.80;97.20
21622;DHT22;10973;46.706;12.340;2023-04-25T11:26:07;12.20;95.50
21622;DHT22;10973;46.706;12.340;2023-04-25T11:28:35;12.10;94.40
21622;DHT22;10973;46.706;12.340;2023-04-25T11:31:03;11.50;93.70
21622;DHT22;10973;46.706;12.340;2023-04-25T11:33:31;10.80;92.60
21622;DHT22;10973;46.706;12.340;2023-04-25T11:35:59;10.70;93.70
21622;DHT22;10973;46.706;12.340;2023-04-25T11:38:26;10.40;92.40
21622;DHT22;10973;46.706;12.340;2023-04-25T11:40:55;10.10;93.60
21622;DHT22;10973;46.706;12.340;2023-04-25T11:43:22;9.70;93.10
21622;DHT22;10973;46.706;12.340;2023-04-25T11:45:50;9.40;94.50
21622;DHT22;10973;46.706;12.340;2023-04-25T11:48:19;9.30;94.80
21622;DHT22;10973;46.706;12.340;2023-04-25T11:50:53;9.20;95.00
21622;DHT22;10973;46.706;12.340;2023-04-25T11:53:21;9.00;93.70
21622;DHT22;10973;46.706;12.340;2023-04-25T11:55:48;8.70;93.40
21622;DHT22;10973;46.706;12.340;2023-04-25T11:58:17;8.60;95.10
21622;DHT22;10973;46.706;12.340;2023-04-25T12:00:45;8.40;95.20
21622;DHT22;10973;46.706;12.340;2023-04-25T12:03:18;8.30;95.40
21622;DHT22;10973;46.706;12.340;2023-04-25T12:05:46;8.20;96.00
21622;DHT22;10973;46.706;12.340;2023-04-25T12:08:15;8.20;95.90
21622;DHT22;10973;46.706;12.340;2023-04-25T12:10:45;8.10;96.30
21622;DHT22;10973;46.706;12.340;2023-04-25T12:13:24;8.10;97.70
21622;DHT22;10973;46.706;12.340;2023-04-25T12:15:56;8.80;98.40
21622;DHT22;10973;46.706;12.340;2023-04-25T12:18:24;9.90;96.40
21622;DHT22;10973;46.706;12.340;2023-04-25T12:20:53;11.00;97.60
21622;DHT22;10973;46.706;12.340;2023-04-25T12:23:28;11.40;95.30
21622;DHT22;10973;46.706;12.340;2023-04-25T12:25:56;11.40;94.40
21622;DHT22;10973;46.706;12.340;2023-04-25T12:28:24;11.70;93.70
21622;DHT22;10973;46.706;12.340;2023-04-25T12:31:02;12.20;92.10
21622;DHT22;10973;46.706;12.340;2023-04-25T12:33:33;12.30;93.60
21622;DHT22;10973;46.706;12.340;2023-04-25T12:36:03;12.10;92.40
21622;DHT22;10973;46.706;12.340;2023-04-25T12:38:36;11.90;92.00
21622;DHT22;10973;46.706;12.340;2023-04-25T12:41:06;11.70;92.20
21622;DHT22;10973;46.706;12.340;2023-04-25T12:43:33;11.40;93.00
21622;DHT22;10973;46.706;12.340;2023-04-25T12:46:01;11.00;91.90
21622;DHT22;10973;46.706;12.340;2023-04-25T12:48:28;10.80;91.60
21622;DHT22;10973;46.706;12.340;2023-04-25T12:50:55;10.60;91.80
21622;DHT22;10973;46.706;12.340;2023-04-25T12:53:23;10.50;91.70
21622;DHT22;10973;46.706;12.340;2023-04-25T12:55:51;10.20;92.00
21622;DHT22;10973;46.706;12.340;2023-04-25T12:58:19;9.90;92.40
21622;DHT22;10973;46.706;12.340;2023-04-25T13:00:46;9.70;93.20
21622;DHT22;10973;46.706;12.340;2023-04-25T13:03:14;9.50;91.80
21622;DHT22;10973;46.706;12.340;2023-04-25T13:05:42;9.30;91.50
21622;DHT22;10973;46.706;12.340;2023-04-25T13:08:10;9.20;92.20
21622;DHT22;10973;46.706;12.340;2023-04-25T13:10:37;9.20;93.30
21622;DHT22;10973;46.706;12.340;2023-04-25T13:13:04;9.10;94.00
21622;DHT22;10973;46.706;12.340;2023-04-25T13:15:32;8.90;94.60
21622;DHT22;10973;46.706;12.340;2023-04-25T13:17:59;8.90;96.70
21622;DHT22;10973;46.706;12.340;2023-04-25T13:20:26;8.90;97.90
21622;DHT22;10973;46.706;12.340;2023-04-25T13:22:54;8.90;98.00
21622;DHT22;10973;46.706;12.340;2023-04-25T13:25:22;8.80;98.30
21622;DHT22;10973;46.706;12.340;2023-04-25T13:27:49;8.90;98.60
21622;DHT22;10973;46.706;12.340;2023-04-25T13:30:17;9.00;96.60
21622;DHT22;10973;46.706;12.340;2023-04-25T13:32:45;9.40;96.70
21622;DHT22;10973;46.706;12.340;2023-04-25T13:35:13;9.80;98.10
21622;DHT22;10973;46.706;12.340;2023-04-25T13:37:41;9.80;96.40
21622;DHT22;10973;46.706;12.340;2023-04-25T13:40:10;9.70;95.80
21622;DHT22;10973;46.706;12.340;2023-04-25T13:42:38;9.60;96.20
21622;DHT22;10973;46.706;12.340;2023-04-25T13:45:07;9.40;95.80
21622;DHT22;10973;46.706;12.340;2023-04-25T13:47:35;9.20;95.50
21622;DHT22;10973;46.706;12.340;2023-04-25T13:50:04;9.00;94.80
21622;DHT22;10973;46.706;12.340;2023-04-25T13:52:31;8.80;94.70
21622;DHT22;10973;46.706;12.340;2023-04-25T13:54:59;8.60;94.80
21622;DHT22;10973;46.706;12.340;2023-04-25T13:57:26;8.50;97.30
21622;DHT22;10973;46.706;12.340;2023-04-25T13:59:54;8.30;95.90
21622;DHT22;10973;46.706;12.340;2023-04-25T14:02:21;8.10;97.20
21622;DHT22;10973;46.706;12.340;2023-04-25T14:04:48;7.70;99.30
21622;DHT22;10973;46.706;12.340;2023-04-25T14:07:16;7.50;99.90
21622;DHT22;10973;46.706;12.340;2023-04-25T14:09:43;7.30;99.90
21622;DHT22;10973;46.706;12.340;2023-04-25T14:12:11;7.20;99.90
21622;DHT22;10973;46.706;12.340;2023-04-25T14:14:38;7.50;99.90
21622;DHT22;10973;46.706;12.340;2023-04-25T14:17:05;8.00;99.90
21622;DHT22;10973;46.706;12.340;2023-04-25T14:19:33;8.80;99.90
21622;DHT22;10973;46.706;12.340;2023-04-25T14:22:01;9.70;99.90
21622;DHT22;10973;46.706;12.340;2023-04-25T14:24:28;10.20;99.40
21622;DHT22;10973;46.706;12.340;2023-04-25T14:26:56;10.70;98.40
21622;DHT22;10973;46.706;12.340;2023-04-25T14:29:23;10.60;97.40
21622;DHT22;10973;46.706;12.340;2023-04-25T14:31:50;10.30;97.80
21622;DHT22;10973;46.706;12.340;2023-04-25T14:36:46;9.60;96.90
21622;DHT22;10973;46.706;12.340;2023-04-25T14:39:13;9.40;97.80
21622;DHT22;10973;46.706;12.340;2023-04-25T14:41:40;9.40;98.40
21622;DHT22;10973;46.706;12.340;2023-04-25T14:44:08;9.70;97.70
21622;DHT22;10973;46.706;12.340;2023-04-25T14:46:36;10.60;97.10
21622;DHT22;10973;46.706;12.340;2023-04-25T14:49:04;11.30;96.00
21622;DHT22;10973;46.706;12.340;2023-04-25T14:51:32;11.80;96.10
21622;DHT22;10973;46.706;12.340;2023-04-25T14:54:00;12.50;96.10
21622;DHT22;10973;46.706;12.340;2023-04-25T14:56:27;12.90;95.20
21622;DHT22;10973;46.706;12.340;2023-04-25T14:58:54;13.10;94.80
21622;DHT22;10973;46.706;12.340;2023-04-25T15:01:22;13.20;94.70
21622;DHT22;10973;46.706;12.340;2023-04-25T15:03:52;13.30;94.10
21622;DHT22;10973;46.706;12.340;2023-04-25T15:06:20;13.20;93.90
21622;DHT22;10973;46.706;12.340;2023-04-25T15:08:47;13.10;93.70
21622;DHT22;10973;46.706;12.340;2023-04-25T15:11:14;13.40;92.60
21622;DHT22;10973;46.706;12.340;2023-04-25T15:13:42;13.30;93.10
21622;DHT22;10973;46.706;12.340;2023-04-25T15:16:10;12.70;93.80
21622;DHT22;10973;46.706;12.340;2023-04-25T15:18:37;13.10;93.10
21622;DHT22;10973;46.706;12.340;2023-04-25T15:21:06;13.20;92.10
21622;DHT22;10973;46.706;12.340;2023-04-25T15:23:33;12.80;91.80
21622;DHT22;10973;46.706;12.340;2023-04-25T15:26:00;13.00;92.40
21622;DHT22;10973;46.706;12.340;2023-04-25T15:28:28;12.70;91.60
21622;DHT22;10973;46.706;12.340;2023-04-25T15:30:55;12.70;92.30
21622;DHT22;10973;46.706;12.340;2023-04-25T15:33:22;13.10;91.50
21622;DHT22;10973;46.706;12.340;2023-04-25T15:35:50;13.40;89.60
21622;DHT22;10973;46.706;12.340;2023-04-25T15:38:17;13.40;87.80
21622;DHT22;10973;46.706;12.340;2023-04-25T15:40:45;13.90;88.30
21622;DHT22;10973;46.706;12.340;2023-04-25T15:43:12;14.00;86.20
21622;DHT22;10973;46.706;12.340;2023-04-25T15:45:40;13.80;86.00
21622;DHT22;10973;46.706;12.340;2023-04-25T15:48:07;13.50;82.60
21622;DHT22;10973;46.706;12.340;2023-04-25T15:50:35;13.10;81.80